Swanscombe, United Kingdom
Current Conditions -  °F | °C
As of 9:20 PM on Saturday 25 Oct 2014 (Local Time) from EGLC Reporting Station
Few Clouds Few Clouds  
Wind Chill: 13°   Ceiling: Unl
Heat Index: 13°   Visibility: 6mi
Dew Point:   Wind: 6mph
Humidity: 72%   Direction: 230°SW
Pressure: 30.15"   Gusts: NA
Location:  51.45°N, 0.31°E
Report Text: EGLC 252020Z AUTO 23005KT 9999 FEW040/// 13/08 Q1021
Loading
Personal Weather Stations






























Interactive Weather Map
Tropical Storm Tracking
New forecast layout! Learn more

10-Day Weather Forecast

Advertisements
Track Severe Weather on mobile